KHUF/HUF METAR and TAF weather

Enter ICAO airport designator
Station Type Date Time Source
KHUF METAR 2021/01/17 18:53 UTC NOAA

KHUF 171853Z 27008KT 10SM FEW011 BKN027 OVC035 01/M03 A2975 RMK AO2 SNE46 SLP079 P0000 T00061028


Station Type Date Time Source
KHUF Decoded METAR 2021/01/17 18:53 UTC NOAA

TERRE HAUTE INTERNATIONAL -HULMAN FLD, IN, United States (KHUF) 39-27N 087-19W 179M
Jan 17, 2021 - 01:53 PM EST / 2021.01.17 1853 UTC
Wind: from the W (270 degrees) at 9 MPH (8 KT):0
Visibility: 10 mile(s):0
Sky conditions: overcast
Precipitation last hour: A trace
Temperature: 33.1 F (0.6 C)
Windchill: 24 F (-4 C):1
Dew Point: 27.0 F (-2.8 C)
Relative Humidity: 77%
Pressure (altimeter): 29.75 in. Hg (1007 hPa)
ob: KHUF 171853Z 27008KT 10SM FEW011 BKN027 OVC035 01/M03 A2975 RMK AO2 SNE46 SLP079 P0000 T00061028
cycle: 19

Station Type Date Time Source
KHUF TAF 2021/01/17 18:27 UTC NOAA

TAF KHUF 171725Z 1718/1818 30006KT P6SM VCSH OVC013
FM180300 27008KT P6SM OVC009
FM180900 27007KT P6SM VCSH OVC010
FM181200 26007KT P6SM OVC008

Example: see airport list